EKKA/KRP METAR and TAF weather

Enter ICAO airport designator
Station Type Date Time Source
EKKA METAR 2018/10/19 15:20 UTC NOAA

EKKA 191520Z AUTO 26005KT 9999NDV OVC035/// 11/06 Q1024


Station Type Date Time Source
EKKA Decoded METAR 2018/10/19 15:20 UTC NOAA

Karup, Denmark (EKKA) 56-18N 009-07E 53M
Oct 19, 2018 - 11:20 AM EDT / 2018.10.19 1520 UTC
Wind: from the W (260 degrees) at 6 MPH (5 KT):0
Sky conditions: overcast
Temperature: 51 F (11 C)
Dew Point: 42 F (6 C)
Relative Humidity: 71%
Pressure (altimeter): 30.24 in. Hg (1024 hPa)
ob: EKKA 191520Z AUTO 26005KT 9999NDV OVC035/// 11/06 Q1024
cycle: 15

Station Type Date Time Source
EKKA TAF 2018/10/19 15:31 UTC NOAA

TAF EKKA 191406Z 1915/2012 27008KT 9999 BKN035
BECMG 1915/1918 21006KT
TEMPO 2001/2005 5000 -RADZ BKN010
BECMG 2003/2006 29010KT PROB40 2009/2012 30012G22KT


Example: see airport list